You are listening to:
RJAA Clearance Delivery #2 - Tokyo, Japan

RJAA 230900Z 07006KT 020V110 9999 FEW015 BKN030 BKN050 17/13 Q1017 BECMG 05005KT

If stream doesn't start automatically press the play button
If stream stops then reload player then press play